Time;durP1;ratioP1;P1;durP2;ratioP2;P2;SDS_P1;SDS_P2;PMS_P1;PMS_P2;Temp;Humidity;BMP_temperature;BMP_pressure;BME280_temperature;BME280_humidity;BME280_pressure;Samples;Min_cycle;Max_cycle;Signal;HPM_P1;HPM_P2
2024/01/06 00:00:39;;;;;;;0.80;0.50;;;;;;;-143.84;62.10;45132.84;5110929;28;20462;-58
2024/01/06 00:03:08;;;;;;;1.33;0.93;;;;;;;-143.84;62.00;45140.47;5111093;28;20482;-58
2024/01/06 00:05:35;;;;;;;0.90;0.50;;;;;;;-143.84;61.66;45132.84;5110847;28;20505;-58
2024/01/06 00:08:02;;;;;;;1.47;1.37;;;;;;;-143.84;61.30;45161.41;5110558;28;20491;-58
2024/01/06 00:10:28;;;;;;;1.90;0.97;;;;;;;-143.84;60.38;45148.09;5110497;28;20439;-58
2024/01/06 00:12:55;;;;;;;0.90;0.80;;;;;;;-143.84;60.07;45150.00;5110459;28;20443;-58
2024/01/06 00:15:22;;;;;;;0.80;0.40;;;;;;;-143.84;59.48;45129.03;5110411;28;20488;-57
2024/01/06 00:17:49;;;;;;;0.80;0.60;;;;;;;-143.84;59.44;45129.03;5110855;28;20476;-58
2024/01/06 00:20:18;;;;;;;0.80;0.57;;;;;;;-143.84;58.80;45138.56;5110282;28;20470;-58
2024/01/06 00:22:45;;;;;;;0.80;0.47;;;;;;;-143.84;58.91;45146.19;5110365;28;20555;-58
2024/01/06 00:25:12;;;;;;;0.90;0.70;;;;;;;-143.84;58.84;45123.34;5110066;28;20434;-58
2024/01/06 00:27:40;;;;;;;0.80;0.40;;;;;;;-143.84;58.68;45151.91;5110289;28;20505;-58
2024/01/06 00:30:08;;;;;;;1.00;0.80;;;;;;;-143.84;58.63;45153.81;5109394;28;20499;-58
2024/01/06 00:32:35;;;;;;;0.80;0.47;;;;;;;-143.84;58.61;45144.28;5109881;28;20450;-58
2024/01/06 00:35:02;;;;;;;1.20;0.80;;;;;;;-143.84;59.40;45138.56;5110010;28;20443;-58
2024/01/06 00:37:31;;;;;;;1.00;0.50;;;;;;;-143.84;59.86;45148.09;5110203;28;20986;-58
2024/01/06 00:39:58;;;;;;;1.17;1.00;;;;;;;-143.84;59.24;45134.75;5109908;28;20462;-58
2024/01/06 00:42:25;;;;;;;0.80;0.40;;;;;;;-143.84;59.44;45117.63;5109623;28;20435;-58
2024/01/06 00:44:52;;;;;;;0.80;0.40;;;;;;;-143.84;59.99;45130.94;5110072;28;20436;-58
2024/01/06 00:47:22;;;;;;;1.57;0.90;;;;;;;-143.84;59.88;45138.56;5109660;28;20513;-58
2024/01/06 00:49:49;;;;;;;0.80;0.40;;;;;;;-143.84;59.68;45146.19;5109969;28;20431;-58
2024/01/06 00:52:16;;;;;;;0.90;0.70;;;;;;;-143.84;59.18;45142.38;5109973;28;20483;-58
2024/01/06 00:54:44;;;;;;;0.90;0.70;;;;;;;-143.84;58.34;45146.19;5109664;28;20443;-58
2024/01/06 00:57:12;;;;;;;1.27;1.17;;;;;;;-143.84;58.24;45148.09;5110185;28;20484;-58
2024/01/06 00:59:39;;;;;;;0.80;0.50;;;;;;;-143.84;57.87;45113.81;5109888;28;20451;-57
2024/01/06 01:02:06;;;;;;;0.80;0.50;;;;;;;-143.84;57.73;45134.75;5109614;28;20936;-58
2024/01/06 01:04:33;;;;;;;0.80;0.50;;;;;;;-143.84;57.22;45138.56;5109885;28;20479;-58
2024/01/06 01:07:00;;;;;;;0.90;0.80;;;;;;;-143.84;56.99;45134.75;5109725;28;20435;-57
2024/01/06 01:09:27;;;;;;;1.47;1.37;;;;;;;-143.84;56.65;45129.03;5109909;28;20431;-58
2024/01/06 01:11:56;;;;;;;0.90;0.70;;;;;;;-143.84;56.53;45159.50;5109792;28;21053;-58
2024/01/06 01:14:23;;;;;;;2.20;0.70;;;;;;;-143.84;56.62;45157.59;5110009;28;20447;-58
2024/01/06 01:16:50;;;;;;;1.00;0.70;;;;;;;-143.84;56.79;45138.56;5109649;28;20443;-58
2024/01/06 01:19:17;;;;;;;1.00;0.90;;;;;;;-143.84;56.81;45150.00;5105715;28;20448;-58
2024/01/06 01:21:44;;;;;;;0.90;0.80;;;;;;;-143.84;56.96;45155.69;5109632;28;20846;-58
2024/01/06 01:24:12;;;;;;;0.80;0.50;;;;;;;-143.84;57.08;45140.47;5109314;28;20486;-58
2024/01/06 01:26:39;;;;;;;1.00;0.70;;;;;;;-143.84;57.65;45138.56;5109879;28;20447;-58
2024/01/06 01:29:07;;;;;;;1.20;1.10;;;;;;;-143.84;57.88;45134.75;5109568;28;21005;-58
2024/01/06 01:31:34;;;;;;;0.80;0.50;;;;;;;-143.84;57.97;45163.31;5109614;28;20937;-58
2024/01/06 01:34:01;;;;;;;0.80;0.47;;;;;;;-143.84;58.47;45136.66;5109615;28;20485;-58
2024/01/06 01:36:28;;;;;;;0.90;0.53;;;;;;;-143.84;58.47;45150.00;5109309;28;20473;-58
2024/01/06 01:38:55;;;;;;;0.80;0.50;;;;;;;-143.84;58.97;45148.09;5109512;28;20485;-58
2024/01/06 01:41:23;;;;;;;0.80;0.47;;;;;;;-143.84;59.63;45148.09;5110442;28;20437;-58
2024/01/06 01:43:57;;;;;;;0.90;0.80;;;;;;;-143.84;59.77;45144.28;5113151;28;20475;-58
2024/01/06 01:46:27;;;;;;;0.80;0.60;;;;;;;-143.84;60.37;45140.47;5113691;28;20434;-58
2024/01/06 01:48:54;;;;;;;0.80;0.50;;;;;;;-143.84;59.90;45150.00;5113047;28;20446;-58
2024/01/06 01:51:22;;;;;;;1.00;0.60;;;;;;;-143.84;59.96;45157.59;5112929;28;20435;-58
2024/01/06 01:53:50;;;;;;;0.80;0.40;;;;;;;-143.84;59.98;45138.56;5113011;28;20526;-58
2024/01/06 01:56:17;;;;;;;28.83;1.57;;;;;;;-143.84;59.54;45151.91;5113382;28;20472;-58
2024/01/06 01:58:45;;;;;;;0.80;0.50;;;;;;;-143.84;60.15;45148.09;5113118;28;20435;-58
2024/01/06 02:01:12;;;;;;;1.10;1.00;;;;;;;-143.84;59.47;45127.13;5113261;28;20431;-58
2024/01/06 02:03:43;;;;;;;0.80;0.60;;;;;;;-143.84;60.52;45140.47;5113250;28;20471;-58
2024/01/06 02:06:10;;;;;;;0.80;0.60;;;;;;;-143.84;60.71;45159.50;5113231;28;20547;-58
2024/01/06 02:08:38;;;;;;;1.10;0.70;;;;;;;-143.84;61.24;45148.09;5112952;28;20443;-58
2024/01/06 02:11:05;;;;;;;0.90;0.63;;;;;;;-143.84;61.26;45151.91;5113543;28;21219;-58
2024/01/06 02:13:35;;;;;;;0.90;0.73;;;;;;;-143.84;61.81;45155.69;5112811;28;20447;-58
2024/01/06 02:16:03;;;;;;;1.00;0.63;;;;;;;-143.84;61.32;45176.66;5112898;28;20503;-58
2024/01/06 02:18:30;;;;;;;0.90;0.77;;;;;;;-143.84;61.05;45151.91;5112924;28;20496;-58
2024/01/06 02:21:00;;;;;;;0.90;0.53;;;;;;;-143.84;61.50;45159.50;5112331;28;20498;-58
2024/01/06 02:23:29;;;;;;;0.80;0.40;;;;;;;-143.84;60.69;45151.91;5112487;27;20478;-58
2024/01/06 02:25:56;;;;;;;0.80;0.50;;;;;;;-143.84;60.87;45148.09;5112556;28;20492;-58
2024/01/06 02:28:23;;;;;;;0.80;0.47;;;;;;;-143.84;60.67;45157.59;5112601;28;20515;-58
2024/01/06 02:30:51;;;;;;;0.80;0.50;;;;;;;-143.84;60.78;45142.38;5112270;28;20864;-58
2024/01/06 02:33:19;;;;;;;0.80;0.40;;;;;;;-143.84;60.61;45159.50;5112778;28;20443;-58
2024/01/06 02:35:45;;;;;;;1.40;0.60;;;;;;;-143.84;60.36;45169.03;5112482;28;21257;-57
2024/01/06 02:38:12;;;;;;;0.80;0.50;;;;;;;-143.84;60.48;45150.00;5112510;28;20975;-58
2024/01/06 02:40:42;;;;;;;1.00;0.60;;;;;;;-143.84;60.38;45129.03;5112206;28;20508;-58
2024/01/06 02:43:10;;;;;;;0.80;0.40;;;;;;;-143.84;60.26;45134.75;5111920;28;20477;-58
2024/01/06 02:45:37;;;;;;;0.80;0.50;;;;;;;-143.84;59.94;45132.84;5112235;28;20432;-58
2024/01/06 02:48:04;;;;;;;1.13;0.70;;;;;;;-143.84;59.65;45163.31;5112039;28;20442;-58
2024/01/06 02:50:31;;;;;;;0.90;0.60;;;;;;;-143.84;59.92;45165.22;5112013;28;20431;-58
2024/01/06 02:52:58;;;;;;;0.90;0.60;;;;;;;-143.84;60.62;45144.28;5111099;28;20455;-58
2024/01/06 02:55:25;;;;;;;1.67;1.27;;;;;;;-143.84;62.06;45132.84;5111668;28;20997;-58
2024/01/06 02:57:54;;;;;;;0.80;0.50;;;;;;;-143.84;62.33;45155.69;5112052;28;20602;-58
2024/01/06 03:00:22;;;;;;;0.80;0.40;;;;;;;-143.84;63.88;45130.94;5111749;28;20446;-59
2024/01/06 03:02:49;;;;;;;0.80;0.50;;;;;;;-143.84;64.96;45132.84;5111777;28;20837;-58
2024/01/06 03:05:16;;;;;;;0.93;0.67;;;;;;;-143.84;67.87;45140.47;5111530;28;20479;-58
2024/01/06 03:07:44;;;;;;;0.80;0.50;;;;;;;-143.84;70.68;45153.81;5111481;28;20480;-58
2024/01/06 03:10:11;;;;;;;0.80;0.70;;;;;;;-143.84;72.53;45148.09;5111651;28;20446;-57
2024/01/06 03:12:38;;;;;;;0.80;0.40;;;;;;;-143.84;73.96;45153.81;5111311;28;20443;-58
2024/01/06 03:15:08;;;;;;;1.40;0.57;;;;;;;-143.84;76.56;45134.75;5111408;28;20853;-58
2024/01/06 03:17:35;;;;;;;0.90;0.80;;;;;;;-143.84;78.14;45132.84;5111930;28;21188;-58
2024/01/06 03:20:02;;;;;;;0.80;0.50;;;;;;;-143.84;79.39;45151.91;5111122;28;20486;-58
2024/01/06 03:22:30;;;;;;;1.50;1.00;;;;;;;-143.84;81.15;45136.66;5111163;28;20514;-58
2024/01/06 03:24:58;;;;;;;0.80;0.50;;;;;;;-143.84;81.57;45138.56;5111248;28;20479;-57
2024/01/06 03:27:25;;;;;;;2.77;1.90;;;;;;;-143.84;82.54;45186.16;5109971;28;20434;-58
2024/01/06 03:29:52;;;;;;;0.93;0.77;;;;;;;-143.84;82.61;45151.91;5109796;28;20439;-58
2024/01/06 03:32:21;;;;;;;0.80;0.60;;;;;;;-143.84;83.00;45155.69;5110507;28;20451;-58
2024/01/06 03:34:48;;;;;;;0.80;0.40;;;;;;;-143.84;83.50;45165.22;5109931;28;20459;-58
2024/01/06 03:37:15;;;;;;;0.80;0.50;;;;;;;-143.84;83.75;45151.91;5109955;28;20439;-58
2024/01/06 03:39:42;;;;;;;0.80;0.50;;;;;;;-143.84;84.45;45140.47;5110539;28;20443;-58
2024/01/06 03:42:09;;;;;;;0.80;0.50;;;;;;;-143.84;84.87;45163.31;5110739;28;21027;-58
2024/01/06 03:44:36;;;;;;;0.90;0.60;;;;;;;-143.84;84.98;45163.31;5110733;28;20524;-58
2024/01/06 03:47:03;;;;;;;0.80;0.40;;;;;;;-143.84;85.51;45134.75;5111069;28;20428;-58
2024/01/06 03:49:32;;;;;;;0.80;0.57;;;;;;;-143.84;86.14;45159.50;5110718;28;20431;-58
2024/01/06 03:51:59;;;;;;;0.80;0.50;;;;;;;-143.84;86.57;45151.91;5110912;28;20779;-58
2024/01/06 03:54:26;;;;;;;0.87;0.67;;;;;;;-143.84;86.84;45163.31;5110813;28;20442;-58
2024/01/06 03:56:53;;;;;;;0.80;0.40;;;;;;;-143.84;87.76;45155.69;5110708;28;20435;-58
2024/01/06 03:59:20;;;;;;;1.10;0.93;;;;;;;-143.84;88.37;45157.59;5110143;28;20443;-60
2024/01/06 04:01:47;;;;;;;7.60;2.80;;;;;;;-143.84;89.04;45150.00;5109529;28;20798;-61
2024/01/06 04:04:15;;;;;;;0.80;0.47;;;;;;;-143.84;90.04;45165.22;5109752;28;20482;-60
2024/01/06 04:06:43;;;;;;;0.80;0.50;;;;;;;-143.84;89.81;45144.28;5109450;28;20439;-61
2024/01/06 04:09:10;;;;;;;0.80;0.50;;;;;;;-143.84;89.13;45169.03;5109501;28;20447;-61
2024/01/06 04:11:37;;;;;;;1.13;1.03;;;;;;;-143.84;89.16;45142.38;5109387;28;20439;-61
2024/01/06 04:14:04;;;;;;;0.90;0.60;;;;;;;-143.84;88.69;45167.13;5109615;28;20443;-60
2024/01/06 04:16:32;;;;;;;0.80;0.70;;;;;;;-143.84;87.91;45188.06;5109301;28;20443;-61
2024/01/06 04:18:59;;;;;;;0.80;0.40;;;;;;;-143.84;87.69;45161.41;5109376;28;20439;-61
2024/01/06 04:21:26;;;;;;;2.07;1.00;;;;;;;-143.84;86.93;45159.50;5109168;28;20478;-61
2024/01/06 04:23:55;;;;;;;2.30;1.37;;;;;;;-143.84;86.57;45150.00;5108988;28;20540;-61
2024/01/06 04:26:22;;;;;;;1.00;0.90;;;;;;;-143.84;86.55;45150.00;5109201;28;20539;-60
2024/01/06 04:28:50;;;;;;;0.80;0.50;;;;;;;-143.84;86.99;45174.75;5109054;28;20486;-61
2024/01/06 04:31:17;;;;;;;0.80;0.50;;;;;;;-143.84;87.08;45186.16;5109011;28;20512;-61
2024/01/06 04:33:44;;;;;;;1.47;0.60;;;;;;;-143.84;86.63;45174.75;5109317;28;20512;-61
2024/01/06 04:36:11;;;;;;;0.80;0.50;;;;;;;-143.84;86.83;45167.13;5108834;28;20446;-61
2024/01/06 04:38:38;;;;;;;1.00;0.60;;;;;;;-143.84;87.33;45159.50;5108895;28;20426;-61
2024/01/06 04:41:07;;;;;;;2.03;1.00;;;;;;;-143.84;87.53;45169.03;5108866;28;20948;-61
2024/01/06 04:43:34;;;;;;;1.10;0.80;;;;;;;-143.84;87.95;45193.78;5108733;28;20451;-61
2024/01/06 04:46:02;;;;;;;1.53;1.43;;;;;;;-143.84;87.90;45150.00;5108793;28;20929;-61
2024/01/06 04:48:29;;;;;;;0.80;0.57;;;;;;;-143.84;87.97;45174.75;5109149;28;20443;-61
2024/01/06 04:50:56;;;;;;;2.13;1.10;;;;;;;-143.84;87.98;45155.69;5108996;28;20492;-61
2024/01/06 04:53:23;;;;;;;0.90;0.57;;;;;;;-143.84;88.04;45163.31;5108798;28;20439;-61
2024/01/06 04:55:50;;;;;;;0.80;0.50;;;;;;;-143.84;87.48;45151.91;5108911;28;20863;-61
2024/01/06 04:58:19;;;;;;;0.80;0.40;;;;;;;-143.84;87.50;45151.91;5108744;28;20779;-61
2024/01/06 05:00:46;;;;;;;1.40;1.10;;;;;;;-143.84;87.40;45193.78;5103566;28;21211;-61
2024/01/06 05:03:13;;;;;;;0.97;0.87;;;;;;;-143.84;87.46;45132.84;5108738;28;20495;-60
2024/01/06 05:05:40;;;;;;;0.80;0.60;;;;;;;-143.84;87.25;45159.50;5108669;28;20519;-61
2024/01/06 05:08:07;;;;;;;0.93;0.83;;;;;;;-143.84;87.67;45140.47;5108656;28;20447;-61
2024/01/06 05:10:34;;;;;;;0.87;0.70;;;;;;;-143.84;87.99;45146.19;5108383;28;20861;-61
2024/01/06 05:13:01;;;;;;;0.90;0.70;;;;;;;-143.84;88.13;45144.28;5108573;28;20435;-61
2024/01/06 05:15:30;;;;;;;0.80;0.57;;;;;;;-143.84;88.50;45170.94;5108910;28;20435;-61
2024/01/06 05:17:57;;;;;;;0.80;0.50;;;;;;;-143.84;88.83;45153.81;5112427;28;20492;-60
2024/01/06 05:20:24;;;;;;;0.80;0.53;;;;;;;-143.84;89.13;45146.19;5112666;28;20482;-61
2024/01/06 05:22:51;;;;;;;1.00;0.63;;;;;;;-143.84;89.21;45167.13;5112489;28;20531;-61
2024/01/06 05:25:19;;;;;;;1.43;0.83;;;;;;;-143.84;89.15;45165.22;5112689;28;20482;-61
2024/01/06 05:27:46;;;;;;;0.90;0.67;;;;;;;-143.84;88.88;45178.56;5112855;28;20427;-61
2024/01/06 05:30:13;;;;;;;0.80;0.50;;;;;;;-143.84;88.30;45159.50;5112633;28;20442;-61
2024/01/06 05:32:42;;;;;;;0.80;0.50;;;;;;;-143.84;88.33;45153.81;5112640;28;20520;-61
2024/01/06 05:35:09;;;;;;;0.80;0.50;;;;;;;-143.84;88.24;45130.94;5112271;28;20925;-61
2024/01/06 05:37:36;;;;;;;0.80;0.40;;;;;;;-143.84;88.07;45155.69;5112246;28;20442;-60
2024/01/06 05:40:03;;;;;;;0.90;0.60;;;;;;;-143.84;88.24;45165.22;5112604;28;20458;-61
2024/01/06 05:42:30;;;;;;;0.80;0.60;;;;;;;-143.84;88.62;45159.50;5112588;28;20447;-60
2024/01/06 05:44:58;;;;;;;0.80;0.50;;;;;;;-143.84;88.71;45159.50;5112404;28;21068;-61
2024/01/06 05:47:25;;;;;;;0.87;0.57;;;;;;;-143.84;89.02;45142.38;5112486;28;20495;-61
2024/01/06 05:49:53;;;;;;;0.83;0.67;;;;;;;-143.84;89.04;45155.69;5111834;28;20936;-60
2024/01/06 05:52:21;;;;;;;1.00;0.60;;;;;;;-143.84;88.84;45155.69;5112216;28;20439;-61
2024/01/06 05:54:48;;;;;;;0.80;0.50;;;;;;;-143.84;88.73;45170.94;5112049;28;20447;-60
2024/01/06 05:57:15;;;;;;;0.80;0.40;;;;;;;-143.84;88.56;45153.81;5112211;28;20467;-61
2024/01/06 05:59:42;;;;;;;2.63;0.80;;;;;;;-143.84;88.70;45169.03;5112058;28;20747;-61
2024/01/06 06:02:09;;;;;;;0.80;0.50;;;;;;;-143.84;88.43;45167.13;5112006;28;20438;-61
2024/01/06 06:04:36;;;;;;;0.80;0.50;;;;;;;-143.84;88.29;45174.75;5111744;27;20466;-61
2024/01/06 06:07:05;;;;;;;0.80;0.50;;;;;;;-143.84;87.98;45161.41;5111933;28;20468;-61
2024/01/06 06:09:34;;;;;;;0.80;0.50;;;;;;;-143.84;87.64;45134.75;5111678;28;20439;-61
2024/01/06 06:12:01;;;;;;;1.00;0.70;;;;;;;-143.84;87.55;45159.50;5111672;27;20948;-60
2024/01/06 06:14:28;;;;;;;1.10;0.83;;;;;;;-143.84;87.11;45155.69;5111787;28;20458;-61
2024/01/06 06:16:56;;;;;;;1.67;1.50;;;;;;;-143.84;86.84;45138.56;5112068;28;20454;-61
2024/01/06 06:19:23;;;;;;;0.80;0.50;;;;;;;-143.84;86.92;45148.09;5111152;28;20471;-61
2024/01/06 06:21:50;;;;;;;3.13;0.80;;;;;;;-143.84;86.91;45138.56;5111442;28;20446;-60
2024/01/06 06:24:19;;;;;;;1.43;1.33;;;;;;;-143.84;86.95;45167.13;5111454;27;20477;-61
2024/01/06 06:26:46;;;;;;;0.83;0.63;;;;;;;-143.84;86.67;45174.75;5111278;28;20940;-61
2024/01/06 06:29:13;;;;;;;1.10;1.00;;;;;;;-143.84;86.76;45176.66;5110245;28;20443;-60
2024/01/06 06:31:42;;;;;;;0.80;0.50;;;;;;;-143.84;86.94;45150.00;5111471;28;20442;-61
2024/01/06 06:34:09;;;;;;;1.20;1.10;;;;;;;-143.84;86.76;45163.31;5111063;28;20580;-61
2024/01/06 06:36:36;;;;;;;0.80;0.60;;;;;;;-143.84;86.77;45157.59;5111223;28;20530;-61
2024/01/06 06:39:04;;;;;;;0.90;0.70;;;;;;;-143.84;86.93;45161.41;5111408;28;20532;-61
2024/01/06 06:41:32;;;;;;;1.13;0.70;;;;;;;-143.84;86.57;45155.69;5111106;28;21138;-61
2024/01/06 06:44:00;;;;;;;1.07;0.97;;;;;;;-143.84;86.82;45163.31;5111134;28;20435;-61
2024/01/06 06:46:27;;;;;;;1.83;1.60;;;;;;;-143.84;86.75;45174.75;5111124;28;20561;-61
2024/01/06 06:48:54;;;;;;;0.80;0.50;;;;;;;-143.84;86.93;45142.38;5110936;28;20427;-61
2024/01/06 06:51:25;;;;;;;1.00;0.80;;;;;;;-143.84;86.96;45176.66;5111116;28;20837;-61
2024/01/06 06:53:52;;;;;;;1.20;0.77;;;;;;;-143.84;86.66;45159.50;5111036;28;21355;-61
2024/01/06 06:56:19;;;;;;;1.17;1.07;;;;;;;-143.84;86.43;45155.69;5111206;28;20457;-61
2024/01/06 06:58:47;;;;;;;0.80;0.70;;;;;;;-143.84;86.48;45138.56;5111020;28;20435;-61
2024/01/06 07:01:15;;;;;;;1.57;0.87;;;;;;;-143.84;86.22;45155.69;5110696;28;20953;-61
2024/01/06 07:03:42;;;;;;;0.90;0.77;;;;;;;-143.84;86.54;45172.84;5110777;28;20864;-60
2024/01/06 07:06:09;;;;;;;1.23;1.13;;;;;;;-143.84;86.62;45163.31;5110600;28;20479;-61
2024/01/06 07:08:38;;;;;;;1.40;1.10;;;;;;;-143.84;86.39;45163.31;5110527;28;20981;-61
2024/01/06 07:11:05;;;;;;;0.80;0.50;;;;;;;-143.84;86.28;45129.03;5110539;28;21156;-61
2024/01/06 07:13:32;;;;;;;1.07;0.70;;;;;;;-143.84;85.73;45155.69;5110340;28;20855;-61
2024/01/06 07:16:01;;;;;;;0.80;0.53;;;;;;;-143.84;85.54;45134.75;5110382;28;20442;-61
2024/01/06 07:18:28;;;;;;;0.90;0.77;;;;;;;-143.84;85.05;45144.28;5110489;28;20937;-61
2024/01/06 07:20:55;;;;;;;0.80;0.50;;;;;;;-143.84;85.22;45129.03;5110258;28;20535;-61
2024/01/06 07:23:22;;;;;;;0.90;0.70;;;;;;;-143.84;84.83;45140.47;5110306;28;20499;-61
2024/01/06 07:25:49;;;;;;;4.40;1.90;;;;;;;-143.84;83.96;45155.69;5109932;28;20487;-61
2024/01/06 07:28:17;;;;;;;0.80;0.53;;;;;;;-143.84;82.75;45165.22;5110280;28;20492;-61
2024/01/06 07:30:44;;;;;;;0.90;0.70;;;;;;;-143.84;82.42;45144.28;5110137;28;20494;-61
2024/01/06 07:33:12;;;;;;;4.60;2.00;;;;;;;-143.84;81.98;45123.34;5110310;28;20427;-61
2024/01/06 07:35:43;;;;;;;9.20;0.70;;;;;;;-143.84;81.98;45150.00;5110141;28;20447;-61
2024/01/06 07:38:11;;;;;;;0.80;0.53;;;;;;;-143.84;82.25;45125.22;5110394;28;20867;-61
2024/01/06 07:40:38;;;;;;;0.93;0.83;;;;;;;-143.84;82.21;45142.38;5109523;28;20528;-61
2024/01/06 07:43:05;;;;;;;1.40;0.70;;;;;;;-143.84;82.24;45140.47;5110012;28;20488;-61
2024/01/06 07:45:33;;;;;;;0.80;0.40;;;;;;;-143.84;82.64;45146.19;5109935;28;20527;-61
2024/01/06 07:48:00;;;;;;;0.93;0.57;;;;;;;-143.84;82.98;45130.94;5110038;28;20834;-61
2024/01/06 07:50:29;;;;;;;0.87;0.57;;;;;;;-143.84;82.73;45157.59;5109906;28;20489;-61
2024/01/06 07:52:56;;;;;;;0.80;0.60;;;;;;;-143.84;82.68;45155.69;5109717;28;20449;-60
2024/01/06 07:55:23;;;;;;;0.80;0.50;;;;;;;-143.84;82.58;45123.34;5109993;28;20443;-61
2024/01/06 07:57:50;;;;;;;0.93;0.73;;;;;;;-143.84;82.27;45176.66;5109632;28;20435;-61
2024/01/06 08:00:17;;;;;;;0.80;0.50;;;;;;;-143.84;82.27;45130.94;5109833;28;20507;-61
2024/01/06 08:02:45;;;;;;;0.80;0.50;;;;;;;-143.84;82.29;45144.28;5109297;28;20435;-61
2024/01/06 08:05:12;;;;;;;0.80;0.47;;;;;;;-143.84;82.04;45146.19;5108733;28;20528;-61
2024/01/06 08:07:40;;;;;;;0.80;0.60;;;;;;;-143.84;82.56;45151.91;5108796;28;20501;-60
2024/01/06 08:10:08;;;;;;;0.80;0.50;;;;;;;-143.84;82.41;45127.13;5109263;28;20439;-61
2024/01/06 08:12:36;;;;;;;0.87;0.60;;;;;;;-143.84;83.12;45117.63;5108842;28;20477;-61
2024/01/06 08:15:04;;;;;;;0.90;0.70;;;;;;;-143.84;82.94;45148.09;5108803;28;20447;-61
2024/01/06 08:17:31;;;;;;;0.80;0.50;;;;;;;-143.84;83.55;45136.66;5109493;28;20450;-61
2024/01/06 08:19:58;;;;;;;2.30;1.37;;;;;;;-143.84;83.67;45151.91;5109394;28;20486;-60
2024/01/06 08:22:25;;;;;;;1.30;0.60;;;;;;;-143.84;83.42;45151.91;5109332;28;20431;-61
2024/01/06 08:24:54;;;;;;;0.80;0.60;;;;;;;-143.84;83.47;45136.66;5096152;28;21313;-61
2024/01/06 08:27:23;;;;;;;0.80;0.57;;;;;;;-143.84;83.86;45142.38;5088244;28;20494;-61
2024/01/06 08:29:51;;;;;;;0.80;0.50;;;;;;;-143.84;82.99;45144.28;5089117;28;20451;-61
2024/01/06 08:32:18;;;;;;;1.60;1.13;;;;;;;-143.84;82.67;45140.47;5098744;28;20541;-61
2024/01/06 08:34:45;;;;;;;0.80;0.50;;;;;;;-143.84;82.55;45136.66;5109107;28;20439;-61
2024/01/06 08:37:13;;;;;;;0.80;0.50;;;;;;;-143.84;80.41;45140.47;5108998;28;21009;-62
2024/01/06 08:39:41;;;;;;;1.10;1.00;;;;;;;-143.84;77.77;45121.44;5109255;28;20941;-62
2024/01/06 08:42:09;;;;;;;0.80;0.40;;;;;;;-143.84;75.84;45130.94;5108388;28;20530;-61
2024/01/06 08:44:36;;;;;;;2.40;1.63;;;;;;;-143.84;76.15;45132.84;5109014;28;20929;-61
2024/01/06 08:47:04;;;;;;;0.90;0.67;;;;;;;-143.84;75.13;45113.81;5108845;28;20482;-62
2024/01/06 08:49:31;;;;;;;1.07;0.60;;;;;;;-143.84;72.95;45106.19;5108828;28;20529;-62
2024/01/06 08:51:59;;;;;;;0.90;0.63;;;;;;;-143.84;71.71;45125.22;5108357;28;20435;-61
2024/01/06 08:54:26;;;;;;;0.80;0.60;;;;;;;-143.84;72.47;45125.22;5109219;28;20431;-61
2024/01/06 08:56:54;;;;;;;0.87;0.70;;;;;;;-143.84;73.96;45142.38;5108039;28;20434;-61
2024/01/06 08:59:22;;;;;;;0.80;0.40;;;;;;;-143.84;74.10;45119.53;5108694;28;20442;-61
2024/01/06 09:01:49;;;;;;;0.80;0.43;;;;;;;-143.84;75.71;45138.56;5108734;28;20446;-61
2024/01/06 09:04:16;;;;;;;0.90;0.60;;;;;;;-143.84;76.67;45155.69;5108987;28;20430;-61
2024/01/06 09:06:43;;;;;;;2.13;0.60;;;;;;;-143.84;76.79;45127.13;5108567;28;20478;-61
2024/01/06 09:09:13;;;;;;;0.90;0.70;;;;;;;-143.84;77.03;45155.69;5108800;28;21124;-61
2024/01/06 09:11:41;;;;;;;0.80;0.50;;;;;;;-143.84;77.47;45140.47;5108179;28;20997;-61
2024/01/06 09:14:09;;;;;;;0.80;0.50;;;;;;;-143.84;77.57;45155.69;5108092;28;20431;-61
2024/01/06 09:16:38;;;;;;;0.80;0.50;;;;;;;-143.84;78.81;45123.34;5108944;28;20461;-61
2024/01/06 09:19:06;;;;;;;0.80;0.60;;;;;;;-143.84;78.63;45130.94;5108686;28;20508;-61
2024/01/06 09:21:33;;;;;;;0.93;0.83;;;;;;;-143.84;77.23;45132.84;5108662;28;20447;-61
2024/01/06 09:24:05;;;;;;;0.80;0.50;;;;;;;-143.84;75.46;45129.03;5108860;28;20442;-61
2024/01/06 09:26:33;;;;;;;0.80;0.50;;;;;;;-143.84;74.08;45115.72;5107864;28;20475;-61
2024/01/06 09:29:01;;;;;;;0.90;0.50;;;;;;;-143.84;74.34;45117.63;5108368;28;20438;-61
2024/01/06 09:31:28;;;;;;;2.50;0.50;;;;;;;-143.84;75.00;45130.94;5108280;28;20933;-61
2024/01/06 09:34:01;;;;;;;1.10;1.00;;;;;;;-143.84;75.21;45132.84;5108576;28;20435;-61
2024/01/06 09:36:28;;;;;;;0.90;0.60;;;;;;;-143.84;74.03;45100.47;5108962;28;20463;-61
2024/01/06 09:38:55;;;;;;;1.00;0.67;;;;;;;-143.84;75.10;45130.94;5108339;28;20435;-61
2024/01/06 09:41:23;;;;;;;0.90;0.70;;;;;;;-143.84;75.36;45119.53;5107803;28;20438;-61
2024/01/06 09:43:50;;;;;;;0.80;0.40;;;;;;;-143.84;76.60;45157.59;5108073;28;20503;-60
2024/01/06 09:46:25;;;;;;;0.90;0.47;;;;;;;-143.84;77.74;45104.28;5108334;28;20528;-61
2024/01/06 09:48:54;;;;;;;0.80;0.40;;;;;;;-143.84;77.13;45123.34;5105447;28;20434;-61
2024/01/06 09:51:24;;;;;;;1.57;1.23;;;;;;;-143.84;77.87;45134.75;5108426;28;20507;-61
2024/01/06 09:53:57;;;;;;;0.90;0.50;;;;;;;-143.84;78.16;45142.38;5108368;28;21018;-62
2024/01/06 09:56:25;;;;;;;0.80;0.50;;;;;;;-143.84;77.66;45125.22;5107338;28;20495;-61
2024/01/06 09:58:53;;;;;;;3.90;2.20;;;;;;;-143.84;76.91;45119.53;5107923;28;20435;-61
2024/01/06 10:01:20;;;;;;;1.30;0.83;;;;;;;-143.84;77.14;45161.41;5108111;28;20449;-61
2024/01/06 10:03:48;;;;;;;1.90;0.60;;;;;;;-143.84;78.13;45121.44;5102850;28;20979;-58
2024/01/06 10:06:15;;;;;;;0.80;0.50;;;;;;;-143.84;79.46;45136.66;5096824;28;20472;-59
2024/01/06 10:08:45;;;;;;;0.93;0.60;;;;;;;-143.84;79.72;45132.84;5111788;28;20439;-59
2024/01/06 10:11:14;;;;;;;0.90;0.63;;;;;;;-143.84;80.33;45129.03;5102437;28;20447;-59
2024/01/06 10:13:41;;;;;;;1.80;0.87;;;;;;;-143.84;79.71;45146.19;5091335;28;20443;-58
2024/01/06 10:16:09;;;;;;;0.80;0.47;;;;;;;-143.84;79.04;45132.84;5106792;28;20449;-59
2024/01/06 10:18:36;;;;;;;0.90;0.80;;;;;;;-143.84;78.55;45110.00;5111739;28;20553;-59
2024/01/06 10:21:05;;;;;;;0.90;0.73;;;;;;;-143.84;77.97;45146.19;5108922;28;20483;-59
2024/01/06 10:23:33;;;;;;;0.80;0.50;;;;;;;-143.84;77.93;45132.84;5111479;28;20438;-59
2024/01/06 10:26:02;;;;;;;2.17;1.00;;;;;;;-143.84;77.22;45125.22;5106020;28;20509;-58
2024/01/06 10:28:30;;;;;;;0.90;0.60;;;;;;;-143.84;76.02;45140.47;5091921;28;20463;-58
2024/01/06 10:30:58;;;;;;;1.10;0.80;;;;;;;-143.84;75.77;45146.19;5091200;28;20428;-58
2024/01/06 10:33:27;;;;;;;0.90;0.60;;;;;;;-143.84;74.90;45125.22;5090850;28;20444;-58
2024/01/06 10:35:55;;;;;;;1.20;0.80;;;;;;;-143.84;73.30;45148.09;5102972;28;20452;-58
2024/01/06 10:38:23;;;;;;;2.60;1.10;;;;;;;-143.84;73.20;45115.72;5108277;28;20442;-58
2024/01/06 10:40:58;;;;;;;0.80;0.40;;;;;;;-143.84;72.89;45125.22;5110395;28;20458;-58
2024/01/06 10:43:28;;;;;;;1.23;0.80;;;;;;;-143.84;73.96;45117.63;5111218;28;20438;-58
2024/01/06 10:45:59;;;;;;;1.00;0.90;;;;;;;-143.84;74.92;45151.91;5111281;28;21361;-58
2024/01/06 10:48:27;;;;;;;0.80;0.60;;;;;;;-143.84;76.75;45134.75;5111014;28;20439;-58
2024/01/06 10:50:56;;;;;;;1.17;0.77;;;;;;;-143.84;78.74;45130.94;5110968;28;20495;-58
2024/01/06 10:53:25;;;;;;;1.53;0.50;;;;;;;-143.84;80.62;45138.56;5110863;28;20453;-58
2024/01/06 10:55:53;;;;;;;0.90;0.50;;;;;;;-143.84;80.69;45144.28;5110267;28;20529;-58
2024/01/06 10:58:20;;;;;;;1.47;0.90;;;;;;;-143.84;81.57;45134.75;5110759;28;20445;-59
2024/01/06 11:00:50;;;;;;;1.60;0.73;;;;;;;-143.84;81.87;45129.03;5109767;28;20439;-59
2024/01/06 11:03:18;;;;;;;1.33;0.80;;;;;;;-143.84;82.58;45153.81;5109262;28;20446;-58
2024/01/06 11:05:46;;;;;;;0.90;0.67;;;;;;;-143.84;83.15;45148.09;5109466;28;20556;-58
2024/01/06 11:08:13;;;;;;;1.83;1.07;;;;;;;-143.84;84.11;45155.69;5108985;28;21175;-58
2024/01/06 11:10:41;;;;;;;0.80;0.50;;;;;;;-143.84;83.94;45155.69;5109472;28;20443;-58
2024/01/06 11:13:12;;;;;;;1.13;0.80;;;;;;;-143.84;84.01;45144.28;5109752;28;20447;-58
2024/01/06 11:15:48;;;;;;;0.90;0.80;;;;;;;-143.84;84.23;45153.81;5107745;28;20447;-58
2024/01/06 11:18:38;;;;;;;1.43;1.33;;;;;;;-143.84;84.88;45163.31;5108709;28;20439;-58